Time;durP1;ratioP1;P1;durP2;ratioP2;P2;SDS_P1;SDS_P2;PMS_P1;PMS_P2;Temp;Humidity;BMP_temperature;BMP_pressure;BME280_temperature;BME280_humidity;BME280_pressure;Samples;Min_cycle;Max_cycle;Signal;HPM_P1;HPM_P2
2023/09/11 00:00:11;;;;;;;;;16.40;15.60;;;;;19.80;65.45;99792.84;5097033;28;8819;-59
2023/09/11 00:02:39;;;;;;;;;18.00;17.40;;;;;19.70;66.01;99786.84;5097335;28;8823;-57
2023/09/11 00:05:07;;;;;;;;;22.00;20.40;;;;;19.60;66.42;99786.28;5096902;28;8838;-57
2023/09/11 00:07:35;;;;;;;;;21.40;19.60;;;;;19.49;66.35;99779.44;5096565;28;8851;-57
2023/09/11 00:10:03;;;;;;;;;17.20;15.60;;;;;19.43;66.22;99779.34;5096637;28;8933;-57
2023/09/11 00:12:30;;;;;;;;;23.80;22.60;;;;;19.36;66.32;99773.81;5096910;28;8844;-57
2023/09/11 00:14:58;;;;;;;;;20.00;19.80;;;;;19.31;66.67;99781.66;5096457;28;8837;-59
2023/09/11 00:17:25;;;;;;;;;13.40;11.60;;;;;19.27;66.99;99766.00;5096822;28;8885;-57
2023/09/11 00:19:53;;;;;;;;;19.20;18.60;;;;;19.25;66.77;99770.72;5096424;28;8818;-58
2023/09/11 00:22:21;;;;;;;;;20.60;18.40;;;;;19.22;66.86;99765.69;5096752;28;8818;-59
2023/09/11 00:24:48;;;;;;;;;23.00;18.80;;;;;19.20;67.21;99762.34;5095662;28;8821;-57
2023/09/11 00:27:16;;;;;;;;;22.00;21.80;;;;;19.19;66.78;99761.47;5095373;28;8837;-58
2023/09/11 00:29:45;;;;;;;;;17.40;15.20;;;;;19.19;67.22;99761.47;5095643;28;8818;-59
2023/09/11 00:32:13;;;;;;;;;26.60;22.60;;;;;19.18;66.74;99759.78;5096059;28;8830;-57
2023/09/11 00:34:40;;;;;;;;;19.60;18.60;;;;;19.19;66.99;99766.88;5095843;28;8861;-58
2023/09/11 00:37:08;;;;;;;;;24.60;22.40;;;;;19.19;67.01;99757.94;5095721;28;8806;-58
2023/09/11 00:39:35;;;;;;;;;22.80;21.00;;;;;19.19;66.61;99760.63;5095623;28;8838;-57
2023/09/11 00:42:03;;;;;;;;;14.60;14.60;;;;;19.17;66.70;99749.16;5095571;28;9475;-57
2023/09/11 00:44:31;;;;;;;;;20.60;19.60;;;;;19.16;66.96;99745.63;5095283;28;8814;-57
2023/09/11 00:46:58;;;;;;;;;21.40;20.60;;;;;19.13;67.21;99745.97;5095424;28;8945;-58
2023/09/11 00:49:26;;;;;;;;;13.20;12.80;;;;;19.11;67.25;99742.63;5095661;28;8822;-57
2023/09/11 00:51:54;;;;;;;;;19.40;19.00;;;;;19.07;67.03;99741.31;5095176;28;8806;-57
2023/09/11 00:54:21;;;;;;;;;21.00;21.00;;;;;19.05;66.76;99747.91;5094984;28;8822;-57
2023/09/11 00:56:49;;;;;;;;;18.80;17.80;;;;;19.04;66.95;99746.22;5095673;28;8822;-58
2023/09/11 00:59:17;;;;;;;;;18.60;17.20;;;;;19.03;66.76;99744.56;5095285;28;8834;-58
2023/09/11 01:01:44;;;;;;;;;21.60;20.60;;;;;19.03;67.20;99742.69;5095238;28;8883;-57
2023/09/11 01:04:12;;;;;;;;;19.80;18.40;;;;;19.03;67.07;99739.97;5095461;28;8810;-57
2023/09/11 01:06:40;;;;;;;;;21.00;18.80;;;;;19.04;67.07;99736.25;5095279;28;8826;-58
2023/09/11 01:09:08;;;;;;;;;19.60;18.40;;;;;19.04;66.77;99735.44;5095059;28;8845;-59
2023/09/11 01:11:36;;;;;;;;;23.60;22.80;;;;;19.05;67.35;99734.41;5095314;28;8822;-58
2023/09/11 01:14:04;;;;;;;;;24.80;22.80;;;;;19.05;67.06;99732.53;5094342;28;8802;-59
2023/09/11 01:16:32;;;;;;;;;25.25;22.75;;;;;19.06;66.82;99733.38;5095414;28;8842;-58
2023/09/11 01:19:00;;;;;;;;;26.80;23.40;;;;;19.05;66.92;99729.84;5095425;28;8822;-59
2023/09/11 01:21:28;;;;;;;;;22.60;20.80;;;;;19.04;67.01;99730.84;5095570;28;8814;-59
2023/09/11 01:23:55;;;;;;;;;15.75;15.00;;;;;19.03;66.71;99728.34;5094669;28;8895;-59
2023/09/11 01:26:23;;;;;;;;;24.60;20.00;;;;;19.00;66.69;99726.84;5094918;28;8941;-57
2023/09/11 01:28:50;;;;;;;;;23.40;19.00;;;;;18.98;66.71;99731.56;5095309;28;8850;-59
2023/09/11 01:31:18;;;;;;;;;22.80;21.60;;;;;18.96;67.36;99735.50;5094973;28;9536;-59
2023/09/11 01:33:46;;;;;;;;;21.80;19.00;;;;;18.94;66.82;99735.66;5095586;28;8810;-58
2023/09/11 01:36:14;;;;;;;;;21.60;21.60;;;;;18.92;67.26;99728.78;5094341;28;8818;-59
2023/09/11 01:38:41;;;;;;;;;17.80;15.00;;;;;18.89;67.48;99732.66;5095229;28;8806;-59
2023/09/11 01:41:09;;;;;;;;;22.40;20.40;;;;;18.87;67.68;99729.31;5094634;28;8842;-58
2023/09/11 01:43:37;;;;;;;;;27.20;25.20;;;;;18.84;67.43;99729.69;5094376;28;9550;-59
2023/09/11 01:46:05;;;;;;;;;17.60;17.40;;;;;18.79;67.67;99732.06;5094698;28;8818;-59
2023/09/11 01:48:32;;;;;;;;;23.20;21.60;;;;;18.77;67.90;99725.16;5094172;28;8883;-59
2023/09/11 01:51:00;;;;;;;;;16.40;15.20;;;;;18.74;67.73;99729.06;5094447;28;8825;-57
2023/09/11 01:53:28;;;;;;;;;21.40;18.80;;;;;18.72;67.49;99723.00;5094894;28;8865;-59
2023/09/11 01:55:56;;;;;;;;;21.40;19.00;;;;;18.71;67.44;99726.72;5094845;28;9486;-58
2023/09/11 01:58:24;;;;;;;;;21.00;19.00;;;;;18.69;67.74;99726.06;5095155;28;8823;-58
2023/09/11 02:00:51;;;;;;;;;22.40;21.20;;;;;18.66;67.74;99729.09;5094776;28;8864;-59
2023/09/11 02:03:19;;;;;;;;;22.20;21.00;;;;;18.64;67.91;99723.06;5094889;28;8903;-59
2023/09/11 02:05:47;;;;;;;;;24.60;21.40;;;;;18.62;67.74;99725.09;5095022;28;8918;-59
2023/09/11 02:08:14;;;;;;;;;21.80;19.20;;;;;18.62;68.10;99721.56;5095055;28;8818;-58
2023/09/11 02:10:42;;;;;;;;;24.80;24.20;;;;;18.61;67.68;99723.41;5094519;28;9519;-59
2023/09/11 02:13:10;;;;;;;;;16.40;16.00;;;;;18.61;67.93;99731.50;5094816;28;8846;-58
2023/09/11 02:15:37;;;;;;;;;26.00;23.00;;;;;18.59;67.74;99719.22;5094506;28;8827;-57
2023/09/11 02:18:05;;;;;;;;;22.20;19.20;;;;;18.61;67.98;99714.47;5095168;28;8819;-59
2023/09/11 02:20:33;;;;;;;;;22.00;20.50;;;;;18.61;67.80;99709.91;5094642;28;8823;-59
2023/09/11 02:23:00;;;;;;;;;28.25;23.50;;;;;18.59;68.07;99706.56;5094921;28;8807;-59
2023/09/11 02:25:28;;;;;;;;;19.00;17.80;;;;;18.57;68.08;99716.69;5098306;28;8826;-60
2023/09/11 02:27:55;;;;;;;;;23.60;21.20;;;;;18.54;67.53;99711.69;5097940;28;8841;-58
2023/09/11 02:30:23;;;;;;;;;24.75;24.75;;;;;18.50;67.86;99715.72;5098351;28;8918;-59
2023/09/11 02:32:51;;;;;;;;;23.50;22.75;;;;;18.46;67.92;99713.56;5098139;28;8802;-60
2023/09/11 02:35:19;;;;;;;;;27.75;26.75;;;;;18.43;68.40;99709.38;5098660;28;8822;-59
2023/09/11 02:37:46;;;;;;;;;24.25;23.25;;;;;18.43;67.82;99717.44;5098608;28;8836;-59
2023/09/11 02:40:14;;;;;;;;;31.00;26.75;;;;;18.44;67.97;99713.72;5098241;28;8833;-58
2023/09/11 02:42:42;;;;;;;;;40.75;38.25;;;;;18.44;67.77;99710.22;5098036;28;8814;-57
2023/09/11 02:45:10;;;;;;;;;44.50;42.00;;;;;18.43;68.27;99693.19;5097618;28;8822;-59
2023/09/11 02:47:38;;;;;;;;;40.50;36.75;;;;;18.45;68.33;99711.88;5098284;28;8858;-59
2023/09/11 02:50:06;;;;;;;;;51.00;45.25;;;;;18.46;67.69;99708.19;5098190;28;8842;-58
2023/09/11 02:52:33;;;;;;;;;55.50;49.25;;;;;18.46;68.00;99700.09;5098138;28;8818;-59
2023/09/11 02:55:01;;;;;;;;;40.75;36.75;;;;;18.46;67.81;99703.63;5097774;28;8818;-60
2023/09/11 02:57:29;;;;;;;;;47.25;42.75;;;;;18.47;68.17;99696.38;5098062;28;8823;-59
2023/09/11 02:59:56;;;;;;;;;40.75;34.75;;;;;18.46;67.77;99690.16;5098273;28;9179;-59
2023/09/11 03:02:24;;;;;;;;;38.00;31.00;;;;;18.47;67.90;99702.63;5098068;28;8842;-60
2023/09/11 03:04:52;;;;;;;;;37.50;33.50;;;;;18.46;67.81;99694.69;5098375;28;8818;-60
2023/09/11 03:07:20;;;;;;;;;34.00;29.00;;;;;18.45;68.04;99696.53;5098304;28;8826;-59
2023/09/11 03:09:48;;;;;;;;;32.00;29.00;;;;;18.44;68.29;99694.03;5097737;28;8834;-59
2023/09/11 03:12:15;;;;;;;;;38.00;34.00;;;;;18.42;67.97;99691.50;5097911;28;8822;-60
2023/09/11 03:14:43;;;;;;;;;28.25;28.00;;;;;18.42;68.43;99686.13;5097560;28;8806;-59
2023/09/11 03:17:13;;;;;;;;;29.50;27.50;;;;;18.41;67.82;99683.59;5097913;28;8913;-59
2023/09/11 03:19:41;;;;;;;;;36.00;27.25;;;;;18.40;67.94;99688.16;5097567;28;8818;-57
2023/09/11 03:22:08;;;;;;;;;31.50;29.00;;;;;18.39;68.15;99681.09;5097018;28;8830;-58
2023/09/11 03:24:36;;;;;;;;;25.00;24.00;;;;;18.40;68.15;99682.75;5096947;28;8817;-60
2023/09/11 03:27:04;;;;;;;;;25.00;24.00;;;;;18.41;68.17;99683.59;5097521;28;8806;-58
2023/09/11 03:29:31;;;;;;;;;26.50;24.75;;;;;18.41;68.03;99687.13;5097443;28;8822;-58
2023/09/11 03:31:59;;;;;;;;;25.60;22.20;;;;;18.40;67.86;99690.84;5097588;28;8815;-59
2023/09/11 03:34:26;;;;;;;;;28.50;27.00;;;;;18.41;67.83;99688.97;5097374;28;8802;-59
2023/09/11 03:36:54;;;;;;;;;33.00;28.00;;;;;18.41;67.71;99688.97;5096464;28;8936;-59
2023/09/11 03:39:22;;;;;;;;;32.50;29.00;;;;;18.41;67.81;99687.13;5097367;28;8806;-58
2023/09/11 03:41:50;;;;;;;;;30.00;28.60;;;;;18.41;67.79;99680.88;5097454;28;8833;-57
2023/09/11 03:44:17;;;;;;;;;19.00;15.60;;;;;18.40;67.98;99681.91;5096524;28;8814;-57
2023/09/11 03:46:45;;;;;;;;;32.20;28.00;;;;;18.38;68.39;99676.69;5096835;28;8854;-59
2023/09/11 03:49:13;;;;;;;;;25.75;24.50;;;;;18.37;68.31;99675.00;5097152;28;8830;-58
2023/09/11 03:51:40;;;;;;;;;28.50;27.25;;;;;18.34;68.52;99672.69;5097279;28;8896;-57
2023/09/11 03:54:08;;;;;;;;;31.75;28.25;;;;;18.31;67.96;99670.34;5097012;28;9839;-60
2023/09/11 03:56:36;;;;;;;;;27.00;25.75;;;;;18.28;68.17;99670.66;5096606;28;8818;-60
2023/09/11 03:59:04;;;;;;;;;27.00;25.50;;;;;18.26;68.01;99675.41;5096281;28;9596;-57
2023/09/11 04:01:31;;;;;;;;;27.50;25.00;;;;;18.24;68.57;99663.97;5096630;28;8827;-56
2023/09/11 04:03:59;;;;;;;;;25.00;25.00;;;;;18.23;68.30;99669.50;5096380;28;8819;-59
2023/09/11 04:06:27;;;;;;;;;31.00;26.75;;;;;18.20;68.84;99659.91;5095618;28;8847;-59
2023/09/11 04:08:54;;;;;;;;;23.25;21.75;;;;;18.18;68.78;99653.88;5094978;28;8830;-57
2023/09/11 04:11:23;;;;;;;;;24.00;23.00;;;;;18.18;68.26;99661.97;5095706;28;8888;-60
2023/09/11 04:13:50;;;;;;;;;18.00;18.00;;;;;18.16;68.41;99674.78;5095606;28;8960;-59
2023/09/11 04:16:19;;;;;;;;;25.75;22.50;;;;;18.14;68.78;99666.00;5096171;28;8865;-58
2023/09/11 04:18:47;;;;;;;;;23.75;22.00;;;;;18.11;68.84;99666.38;5096544;28;8829;-57
2023/09/11 04:21:16;;;;;;;;;26.20;23.80;;;;;18.10;69.08;99670.09;5096513;28;8888;-57
2023/09/11 04:23:43;;;;;;;;;20.00;17.25;;;;;18.09;68.50;99668.41;5097263;28;8833;-58
2023/09/11 04:26:11;;;;;;;;;29.50;23.50;;;;;18.07;68.70;99665.03;5096577;28;9526;-60
2023/09/11 04:28:39;;;;;;;;;28.50;25.50;;;;;18.06;68.52;99667.94;5096151;28;8846;-60
2023/09/11 04:31:07;;;;;;;;;30.50;26.00;;;;;18.05;68.74;99669.78;5096411;28;8837;-58
2023/09/11 04:33:35;;;;;;;;;30.00;27.75;;;;;18.04;68.43;99670.78;5096353;28;8822;-59
2023/09/11 04:36:03;;;;;;;;;31.50;27.50;;;;;18.02;68.55;99661.19;5095702;28;9483;-57
2023/09/11 04:38:31;;;;;;;;;25.50;23.00;;;;;18.01;68.80;99670.31;5096162;28;8817;-58
2023/09/11 04:40:58;;;;;;;;;30.75;29.00;;;;;17.98;68.89;99665.28;5095280;28;8960;-57
2023/09/11 04:43:26;;;;;;;;;21.75;19.00;;;;;17.96;69.04;99656.50;5095423;28;8830;-58
2023/09/11 04:45:53;;;;;;;;;24.50;22.75;;;;;17.92;68.73;99660.59;5095186;28;8884;-59
2023/09/11 04:48:21;;;;;;;;;27.75;24.00;;;;;17.88;68.92;99654.69;5094402;28;9821;-58
2023/09/11 04:50:49;;;;;;;;;29.75;25.00;;;;;17.87;68.90;99660.25;5095447;28;8838;-59
2023/09/11 04:53:16;;;;;;;;;21.00;21.00;;;;;17.81;68.97;99659.09;5095413;28;8859;-58
2023/09/11 04:55:44;;;;;;;;;15.20;14.60;;;;;17.77;69.34;99662.34;5094636;28;8834;-57
2023/09/11 04:58:12;;;;;;;;;19.00;18.50;;;;;17.73;69.25;99656.44;5094640;28;8822;-56
2023/09/11 05:00:39;;;;;;;;;14.50;14.50;;;;;17.70;69.33;99651.38;5095450;28;8814;-58
2023/09/11 05:03:07;;;;;;;;;18.50;18.00;;;;;17.68;69.66;99658.81;5094714;28;8810;-57
2023/09/11 05:05:40;;;;;;;;;18.60;15.80;;;;;17.66;69.76;99652.78;5094501;28;8838;-59
2023/09/11 05:08:08;;;;;;;;;19.00;18.00;;;;;17.63;69.52;99655.78;5094822;28;9483;-59
2023/09/11 05:10:36;;;;;;;;;18.80;18.20;;;;;17.60;70.19;99658.84;5094502;28;8830;-57
2023/09/11 05:13:04;;;;;;;;;18.25;17.00;;;;;17.61;69.75;99660.53;5094901;28;8830;-57
2023/09/11 05:15:32;;;;;;;;;26.25;24.00;;;;;17.61;69.26;99657.00;5093120;28;8822;-59
2023/09/11 05:17:59;;;;;;;;;26.25;24.25;;;;;17.62;69.43;99659.50;5094560;28;8887;-58
2023/09/11 05:20:27;;;;;;;;;12.00;10.00;;;;;17.63;69.28;99661.19;5094138;28;8826;-56
2023/09/11 05:22:55;;;;;;;;;21.00;18.00;;;;;17.67;69.34;99658.97;5094188;28;8826;-59
2023/09/11 05:25:22;;;;;;;;;30.00;27.00;;;;;17.72;69.28;99662.00;5093822;28;8841;-59
2023/09/11 05:27:50;;;;;;;;;24.75;23.00;;;;;17.75;68.86;99654.41;5094442;28;8853;-57
2023/09/11 05:30:17;;;;;;;;;25.50;24.25;;;;;17.80;69.41;99657.44;5094266;28;8830;-58
2023/09/11 05:32:51;;;;;;;;;25.25;21.50;;;;;17.86;68.59;99654.03;5091786;28;8818;-57
2023/09/11 05:35:19;;;;;;;;;20.50;16.75;;;;;17.93;69.07;99663.06;5092958;28;8838;-57
2023/09/11 05:37:46;;;;;;;;;24.75;23.50;;;;;17.99;68.28;99651.59;5094853;28;8830;-59
2023/09/11 05:40:14;;;;;;;;;21.50;20.00;;;;;18.06;68.87;99659.84;5094382;28;8822;-58
2023/09/11 05:42:42;;;;;;;;;24.75;23.00;;;;;18.12;68.30;99651.88;5093978;28;8810;-59
2023/09/11 05:45:10;;;;;;;;;25.00;22.00;;;;;18.19;68.15;99650.16;5094225;28;8850;-59
2023/09/11 05:47:38;;;;;;;;;22.50;18.50;;;;;18.26;68.05;99653.81;5093951;28;8842;-58
2023/09/11 05:50:07;;;;;;;;;24.00;21.50;;;;;18.36;68.01;99656.34;5093501;28;8849;-59
2023/09/11 05:52:34;;;;;;;;;27.50;24.50;;;;;18.43;67.64;99646.50;5093053;28;8818;-59
2023/09/11 05:55:02;;;;;;;;;23.25;22.00;;;;;18.52;67.46;99654.34;5092696;28;8827;-57
2023/09/11 05:57:30;;;;;;;;;25.00;24.80;;;;;18.60;67.30;99651.59;5093232;28;8876;-59
2023/09/11 05:59:57;;;;;;;;;21.60;19.40;;;;;18.67;67.53;99657.94;5092873;28;8852;-58
2023/09/11 06:02:26;;;;;;;;;29.00;22.50;;;;;18.77;67.38;99655.00;5092779;28;8810;-58
2023/09/11 06:04:53;;;;;;;;;23.20;20.20;;;;;18.84;67.29;99654.13;5093106;28;8818;-57
2023/09/11 06:07:21;;;;;;;;;14.00;14.00;;;;;18.94;67.09;99668.19;5093306;28;8878;-57
2023/09/11 06:09:49;;;;;;;;;21.20;19.20;;;;;19.01;66.55;99669.16;5094057;28;9527;-59
2023/09/11 06:12:16;;;;;;;;;18.40;16.80;;;;;19.09;66.88;99662.81;5093074;28;8861;-59
2023/09/11 06:14:44;;;;;;;;;22.40;19.00;;;;;19.18;66.55;99661.75;5093183;28;8856;-59
2023/09/11 06:17:12;;;;;;;;;18.60;18.20;;;;;19.27;65.92;99660.69;5092950;28;8874;-58
2023/09/11 06:19:39;;;;;;;;;17.20;15.40;;;;;19.35;66.24;99664.09;5093018;28;8830;-59
2023/09/11 06:22:07;;;;;;;;;22.20;21.40;;;;;19.43;66.00;99668.59;5092853;28;8856;-57
2023/09/11 06:24:35;;;;;;;;;22.40;21.40;;;;;19.54;65.85;99665.44;5092366;28;8841;-59
2023/09/11 06:27:03;;;;;;;;;19.60;18.20;;;;;19.64;65.53;99666.84;5091848;28;8834;-60
2023/09/11 06:29:31;;;;;;;;;18.40;16.40;;;;;19.71;65.41;99670.47;5091584;28;8834;-59
2023/09/11 06:31:59;;;;;;;;;18.20;17.80;;;;;19.81;65.48;99670.19;5091707;28;9571;-57
2023/09/11 06:34:29;;;;;;;;;19.40;18.40;;;;;19.88;65.37;99666.53;5092078;28;8830;-57
2023/09/11 06:36:57;;;;;;;;;19.60;18.80;;;;;19.96;65.21;99669.16;5092917;28;8920;-58
2023/09/11 06:39:25;;;;;;;;;21.00;18.40;;;;;20.03;65.24;99664.66;5093201;28;9460;-58
2023/09/11 06:41:52;;;;;;;;;20.80;20.00;;;;;20.13;64.68;99667.09;5094312;28;8842;-58
2023/09/11 06:44:20;;;;;;;;;22.20;21.40;;;;;20.26;64.64;99664.56;5094155;28;8972;-57
2023/09/11 06:46:48;;;;;;;;;22.60;20.00;;;;;20.38;64.73;99661.19;5093970;28;8830;-58
2023/09/11 06:49:15;;;;;;;;;24.40;22.80;;;;;20.49;64.38;99663.38;5094400;28;8830;-58
2023/09/11 06:51:43;;;;;;;;;19.20;18.40;;;;;20.57;64.21;99659.72;5093068;28;8818;-59
2023/09/11 06:54:12;;;;;;;;;16.60;15.20;;;;;20.64;63.94;99658.75;5093274;28;8814;-58
2023/09/11 06:56:40;;;;;;;;;21.60;19.60;;;;;20.73;64.38;99659.47;5093341;28;8984;-60
2023/09/11 06:59:07;;;;;;;;;21.20;20.40;;;;;20.86;63.79;99657.72;5091799;28;8936;-60
2023/09/11 07:01:38;;;;;;;;;16.60;16.20;;;;;20.98;63.51;99656.19;5092602;28;8919;-59
2023/09/11 07:04:06;;;;;;;;;18.20;17.00;;;;;21.10;63.43;99662.78;5092690;28;8926;-58
2023/09/11 07:06:35;;;;;;;;;20.40;19.40;;;;;21.21;63.09;99659.50;5092603;28;8826;-57
2023/09/11 07:09:04;;;;;;;;;17.80;17.40;;;;;21.33;62.92;99660.66;5091350;28;8818;-60
2023/09/11 07:11:31;;;;;;;;;16.60;15.00;;;;;21.44;63.25;99660.09;5094467;28;8976;-60
2023/09/11 07:13:59;;;;;;;;;21.40;19.80;;;;;21.55;62.73;99665.00;5094499;28;9488;-58
2023/09/11 07:16:27;;;;;;;;;23.00;20.00;;;;;21.66;62.86;99653.59;5095852;28;8903;-58
2023/09/11 07:18:54;;;;;;;;;19.20;17.60;;;;;21.77;62.32;99647.59;5096167;28;8825;-58
2023/09/11 07:21:22;;;;;;;;;17.00;16.40;;;;;21.89;62.05;99656.88;5095099;28;8854;-57
2023/09/11 07:23:50;;;;;;;;;18.00;17.40;;;;;22.00;61.88;99648.16;5096918;28;8864;-59
2023/09/11 07:26:18;;;;;;;;;17.20;15.00;;;;;22.12;61.58;99660.09;5095824;28;9527;-58
2023/09/11 07:28:46;;;;;;;;;22.00;19.80;;;;;22.21;61.47;99661.59;5095906;28;8825;-58
2023/09/11 07:31:14;;;;;;;;;18.00;18.00;;;;;22.29;61.69;99664.13;5094987;28;8830;-60
2023/09/11 07:33:41;;;;;;;;;19.60;17.60;;;;;22.38;61.65;99652.88;5096198;28;8825;-58
2023/09/11 07:36:09;;;;;;;;;12.20;12.00;;;;;22.49;61.52;99655.06;5094481;28;8830;-59
2023/09/11 07:38:44;;;;;;;;;17.00;17.00;;;;;22.61;61.33;99658.00;5095900;28;8826;-59
2023/09/11 07:41:12;;;;;;;;;17.60;17.40;;;;;22.71;61.20;99661.16;5096406;28;8845;-58
2023/09/11 07:43:40;;;;;;;;;15.40;14.80;;;;;22.83;60.52;99648.66;5096054;28;8818;-59
2023/09/11 07:46:08;;;;;;;;;19.00;15.40;;;;;22.95;60.55;99649.69;5095372;28;8857;-58
2023/09/11 07:48:36;;;;;;;;;18.40;17.40;;;;;23.08;60.88;99647.00;5096496;28;8867;-58
2023/09/11 07:51:04;;;;;;;;;15.60;14.80;;;;;23.20;60.02;99648.03;5095862;28;8861;-58
2023/09/11 07:53:33;;;;;;;;;20.80;19.40;;;;;23.31;60.37;99645.53;5095401;28;8926;-60
2023/09/11 07:56:00;;;;;;;;;15.00;14.00;;;;;23.44;59.67;99644.72;5095187;28;8842;-59
2023/09/11 07:58:28;;;;;;;;;19.00;16.60;;;;;23.56;59.87;99646.56;5095462;28;8833;-58
2023/09/11 08:00:56;;;;;;;;;15.80;14.80;;;;;23.69;59.99;99651.13;5095650;28;8860;-60
2023/09/11 08:03:24;;;;;;;;;16.00;13.60;;;;;23.79;59.46;99641.47;5094161;28;8907;-58
2023/09/11 08:05:53;;;;;;;;;16.40;15.40;;;;;23.91;59.56;99634.34;5095236;28;8838;-58
2023/09/11 08:08:20;;;;;;;;;16.00;13.80;;;;;24.06;59.17;99636.81;5094226;28;8861;-58
2023/09/11 08:10:48;;;;;;;;;19.40;16.80;;;;;24.21;59.21;99642.81;5093731;28;8844;-58
2023/09/11 08:13:17;;;;;;;;;18.80;17.80;;;;;24.35;58.97;99636.28;5093612;28;8830;-58
2023/09/11 08:15:45;;;;;;;;;16.80;15.00;;;;;24.49;58.65;99635.97;5093992;28;9780;-59
2023/09/11 08:18:13;;;;;;;;;17.80;17.00;;;;;24.62;58.37;99641.38;5094574;28;8818;-59
2023/09/11 08:20:40;;;;;;;;;15.20;14.00;;;;;24.78;58.30;99640.00;5093764;28;8888;-59
2023/09/11 08:23:08;;;;;;;;;14.20;14.20;;;;;24.99;57.80;99632.31;5094412;28;8817;-61
2023/09/11 08:25:36;;;;;;;;;14.60;13.60;;;;;25.21;57.42;99630.88;5094920;28;8864;-58
2023/09/11 08:28:04;;;;;;;;;9.80;9.60;;;;;25.42;57.29;99632.38;5093164;28;8864;-59
2023/09/11 08:30:31;;;;;;;;;17.60;15.00;;;;;25.58;56.77;99633.47;5093941;28;8834;-57
2023/09/11 08:32:59;;;;;;;;;10.60;10.20;;;;;25.77;56.33;99631.59;5095450;28;9437;-60
2023/09/11 08:35:27;;;;;;;;;15.40;15.40;;;;;25.94;56.01;99635.41;5095279;28;8830;-57
2023/09/11 08:37:55;;;;;;;;;15.80;15.00;;;;;26.09;56.25;99639.44;5095223;28;8903;-59
2023/09/11 08:40:23;;;;;;;;;15.80;14.40;;;;;26.26;55.33;99636.91;5095377;28;8814;-58
2023/09/11 08:42:51;;;;;;;;;16.20;15.80;;;;;26.39;55.03;99637.56;5095118;28;8818;-58
2023/09/11 08:45:19;;;;;;;;;15.80;13.80;;;;;26.52;55.11;99642.03;5095403;28;8830;-58
2023/09/11 08:47:46;;;;;;;;;15.20;14.20;;;;;26.66;55.25;99643.53;5094225;28;8843;-58
2023/09/11 08:50:15;;;;;;;;;15.40;14.00;;;;;26.80;55.00;99643.09;5093846;28;8849;-58
2023/09/11 08:52:42;;;;;;;;;15.20;14.40;;;;;26.97;54.77;99641.38;5094842;28;9546;-59
2023/09/11 08:55:10;;;;;;;;;19.40;17.40;;;;;27.14;54.59;99647.84;5094536;28;8822;-58
2023/09/11 08:57:38;;;;;;;;;13.00;13.00;;;;;27.30;53.84;99644.41;5094769;28;8830;-59
2023/09/11 09:00:06;;;;;;;;;13.40;13.40;;;;;27.44;53.88;99632.19;5093814;28;8825;-58
2023/09/11 09:02:34;;;;;;;;;14.40;13.20;;;;;27.59;53.67;99640.75;5093221;28;8830;-58
2023/09/11 09:05:03;;;;;;;;;18.60;18.00;;;;;27.74;53.48;99632.03;5093612;28;8834;-58
2023/09/11 09:07:31;;;;;;;;;13.40;11.60;;;;;27.85;52.95;99632.03;5093871;28;9616;-58
2023/09/11 09:09:59;;;;;;;;;13.80;13.20;;;;;27.95;52.91;99623.22;5092561;28;8826;-58
2023/09/11 09:12:27;;;;;;;;;14.60;13.60;;;;;28.10;52.74;99620.81;5092654;28;9475;-60
2023/09/11 09:14:54;;;;;;;;;9.80;9.60;;;;;28.22;52.63;99619.69;5092847;28;8837;-59
2023/09/11 09:17:23;;;;;;;;;14.40;13.80;;;;;28.36;52.25;99621.13;5093469;28;8846;-58
2023/09/11 09:19:50;;;;;;;;;13.80;13.80;;;;;28.56;51.87;99613.28;5093325;28;8864;-59
2023/09/11 09:22:18;;;;;;;;;12.80;12.60;;;;;28.77;51.94;99622.72;5093798;28;8818;-57
2023/09/11 09:24:46;;;;;;;;;14.20;14.20;;;;;28.86;51.98;99616.59;5093031;28;8833;-58
2023/09/11 09:27:13;;;;;;;;;15.20;14.80;;;;;28.94;51.94;99618.94;5094241;28;9062;-59
2023/09/11 09:29:41;;;;;;;;;10.00;9.80;;;;;29.02;51.72;99617.69;5093954;28;8852;-58
2023/09/11 09:32:09;;;;;;;;;11.80;11.80;;;;;29.08;51.46;99623.03;5093727;28;8889;-59
2023/09/11 09:34:37;;;;;;;;;13.80;13.00;;;;;29.10;50.98;99618.13;5093087;28;8846;-59
2023/09/11 09:37:05;;;;;;;;;14.00;13.40;;;;;29.11;50.98;99608.81;5093355;28;8838;-60
2023/09/11 09:39:34;;;;;;;;;14.40;13.60;;;;;29.13;51.29;99612.13;5093490;28;8849;-60
2023/09/11 09:42:04;;;;;;;;;11.80;11.00;;;;;29.20;50.73;99615.53;5092959;28;8799;-58
2023/09/11 09:44:31;;;;;;;;;12.80;11.20;;;;;29.28;50.97;99604.16;5092560;28;8972;-59
2023/09/11 09:47:02;;;;;;;;;15.80;13.80;;;;;29.39;50.42;99603.25;5093290;28;8872;-59
2023/09/11 09:49:30;;;;;;;;;14.60;12.60;;;;;29.62;50.07;99600.31;5092016;28;8962;-59
2023/09/11 09:51:58;;;;;;;;;9.80;9.40;;;;;30.04;49.22;99595.13;5091628;28;8838;-59
2023/09/11 09:54:26;;;;;;;;;11.60;11.00;;;;;30.52;48.49;99585.00;5091999;28;8895;-60
2023/09/11 09:56:54;;;;;;;;;11.20;11.20;;;;;31.10;47.30;99594.09;5091424;28;8842;-60
2023/09/11 09:59:22;;;;;;;;;13.00;12.40;;;;;31.75;46.09;99591.03;5091770;28;8826;-60
2023/09/11 10:01:50;;;;;;;;;10.60;10.00;;;;;32.34;44.96;99589.66;5092807;28;8860;-59
2023/09/11 10:04:20;;;;;;;;;12.60;11.60;;;;;33.00;44.26;99588.72;5091767;28;8842;-59
2023/09/11 10:06:48;;;;;;;;;13.60;13.40;;;;;33.58;43.60;99575.13;5091913;28;8883;-59
2023/09/11 10:09:16;;;;;;;;;13.00;12.00;;;;;34.11;42.83;99574.44;5091598;28;8826;-59
2023/09/11 10:11:44;;;;;;;;;12.20;12.00;;;;;34.69;42.06;99569.97;5091653;28;9541;-60
2023/09/11 10:14:12;;;;;;;;;13.40;11.20;;;;;35.16;41.73;99559.09;5091840;28;8965;-58
2023/09/11 10:16:40;;;;;;;;;8.40;6.60;;;;;35.51;41.01;99558.78;5090872;28;8868;-58
2023/09/11 10:19:09;;;;;;;;;10.60;10.20;;;;;35.95;40.57;99562.22;5090987;28;8814;-61
2023/09/11 10:21:37;;;;;;;;;10.60;10.60;;;;;36.22;39.82;99564.09;5091670;28;8838;-59
2023/09/11 10:24:06;;;;;;;;;9.60;9.60;;;;;36.40;40.35;99552.19;5091655;28;8858;-59
2023/09/11 10:26:34;;;;;;;;;8.60;8.60;;;;;36.52;40.02;99552.56;5091740;28;8897;-59
2023/09/11 10:29:02;;;;;;;;;13.40;12.60;;;;;36.40;40.18;99560.50;5091140;28;8903;-59
2023/09/11 10:31:30;;;;;;;;;11.20;10.40;;;;;36.02;41.09;99552.38;5091968;28;8945;-59
2023/09/11 10:33:58;;;;;;;;;11.20;10.20;;;;;35.73;41.65;99553.59;5091671;28;8934;-59
2023/09/11 10:36:26;;;;;;;;;13.00;11.80;;;;;35.28;42.27;99552.13;5091107;28;8830;-58
2023/09/11 10:38:54;;;;;;;;;12.80;12.00;;;;;34.90;42.26;99546.59;5091647;28;8826;-59
2023/09/11 10:41:22;;;;;;;;;12.20;11.80;;;;;34.55;43.06;99539.38;5091500;28;8818;-59
2023/09/11 10:43:50;;;;;;;;;10.60;10.00;;;;;34.26;43.73;99549.50;5092315;28;8842;-60
2023/09/11 10:46:17;;;;;;;;;11.00;11.00;;;;;34.20;43.48;99534.00;5092609;28;8988;-61
2023/09/11 10:48:45;;;;;;;;;13.40;11.80;;;;;34.27;43.04;99533.75;5096759;28;8822;-58
2023/09/11 10:51:13;;;;;;;;;12.40;11.60;;;;;34.23;43.77;99532.63;5095352;28;8830;-60
2023/09/11 10:53:41;;;;;;;;;11.00;11.00;;;;;34.11;43.24;99532.13;5094176;28;8830;-59
2023/09/11 10:56:10;;;;;;;;;12.40;11.80;;;;;33.99;43.10;99520.56;5095387;28;8922;-59
2023/09/11 10:58:38;;;;;;;;;11.20;10.00;;;;;34.02;43.40;99525.53;5095486;28;8918;-58
2023/09/11 11:01:06;;;;;;;;;13.00;13.00;;;;;34.00;43.35;99519.47;5095018;28;8829;-59
2023/09/11 11:03:34;;;;;;;;;11.60;10.60;;;;;34.13;43.03;99521.63;5095017;28;8818;-58
2023/09/11 11:06:02;;;;;;;;;13.60;12.60;;;;;34.22;42.81;99515.22;5094733;28;8899;-58
2023/09/11 11:08:30;;;;;;;;;12.20;12.00;;;;;34.31;42.22;99518.22;5094706;28;8850;-58
2023/09/11 11:10:58;;;;;;;;;11.60;11.60;;;;;34.34;42.41;99512.13;5096068;28;8940;-61
2023/09/11 11:13:26;;;;;;;;;10.00;9.20;;;;;34.54;42.68;99506.44;5095600;28;8862;-59
2023/09/11 11:15:54;;;;;;;;;12.40;12.40;;;;;34.94;41.18;99511.69;5095243;28;8929;-58
2023/09/11 11:18:22;;;;;;;;;12.20;12.00;;;;;35.52;40.95;99502.25;5095680;28;8859;-59
2023/09/11 11:20:50;;;;;;;;;11.00;11.00;;;;;36.11;40.27;99501.50;5095314;28;8911;-61
2023/09/11 11:23:18;;;;;;;;;9.80;9.80;;;;;36.62;39.25;99496.91;5095421;28;8825;-60
2023/09/11 11:25:49;;;;;;;;;8.80;8.00;;;;;37.00;38.37;99503.19;5093784;28;8834;-60
2023/09/11 11:28:17;;;;;;;;;12.60;11.40;;;;;37.25;38.10;99506.38;5094026;28;9508;-59